| time (UTC) | temp F | wind direction | speed MPH | gust MPH | rain 1hr in | rain 24hr in | rain mn in | humidity % | barometer mb |
| 20260504004507 | 48 | 240 | 0.0 | 0.0 | 0.00 | 0.00 | 0.00 | 74 | 1010.1 |
| 20260504003041 | 49 | 143 | 0.0 | 0.0 | 0.00 | 0.00 | 0.00 | 73 | 1010.2 |
| 20260504001501 | 50 | 273 | 0.0 | 0.0 | 0.00 | 0.00 | 0.00 | 73 | 1010.2 |
| 20260504000028 | 50 | 150 | 0.0 | 0.0 | 0.00 | 0.00 | 0.00 | 72 | 1010.4 |
| 20260503234538 | 50 | 205 | 0.0 | 0.0 | 0.00 | 0.00 | 0.00 | 72 | 1010.6 |
| 20260503233018 | 50 | 89 | 0.0 | 0.0 | 0.00 | 0.00 | 0.00 | 73 | 1010.7 |
| 20260503231556 | 50 | 132 | 0.0 | 0.0 | 0.00 | 0.00 | 0.00 | 73 | 1010.9 |
| 20260503230040 | 50 | 261 | 0.0 | 0.0 | 0.00 | 0.00 | 0.00 | 72 | 1011.1 |
| 20260503224525 | 50 | 161 | 0.0 | 0.0 | 0.00 | 0.00 | 0.00 | 70 | 1011.3 |
| 20260503223050 | 51 | 266 | 0.0 | 0.0 | 0.00 | 0.00 | 0.00 | 69 | 1011.6 |
| 20260503221535 | 51 | 334 | 0.0 | 0.0 | 0.00 | 0.00 | 0.00 | 67 | 1011.9 |
| 20260503220022 | 52 | 66 | 0.0 | 0.0 | 0.00 | 0.00 | 0.00 | 68 | 1011.9 |
| 20260503214555 | 52 | 170 | 0.0 | 1.0 | 0.00 | 0.00 | 0.00 | 67 | 1011.9 |
| 20260503213038 | 52 | 226 | 0.0 | 0.0 | 0.00 | 0.00 | 0.00 | 66 | 1012.1 |
| 20260503211522 | 52 | 210 | 0.0 | 1.0 | 0.00 | 0.00 | 0.00 | 66 | 1012.3 |
| 20260503210006 | 53 | 331 | 0.0 | 6.0 | 0.00 | 0.00 | 0.00 | 64 | 1012.3 |
| 20260503204544 | 55 | 150 | 0.0 | 16.0 | 0.00 | 0.00 | 0.00 | 63 | 1012.4 |
| 20260503203035 | 57 | 278 | 0.0 | 7.0 | 0.00 | 0.00 | 0.00 | 55 | 1012.3 |
| 20260503201518 | 59 | 112 | 0.0 | 7.0 | 0.00 | 0.00 | 0.00 | 49 | 1011.9 |
| 20260503200054 | 60 | 243 | 0.0 | 4.0 | 0.00 | 0.00 | 0.00 | 46 | 1012.2 |
| 20260503194537 | 60 | 316 | 1.0 | 11.0 | 0.00 | 0.00 | 0.00 | 45 | 1012.2 |
| 20260503193014 | 60 | 214 | 0.0 | 16.0 | 0.00 | 0.00 | 0.00 | 46 | 1012.6 |
| 20260503191555 | 61 | 278 | 0.0 | 5.0 | 0.00 | 0.00 | 0.00 | 44 | 1012.7 |
| 20260503190032 | 62 | 264 | 0.0 | 11.0 | 0.00 | 0.00 | 0.00 | 42 | 1012.8 |
| 20260503184517 | 63 | 247 | 0.0 | 5.0 | 0.00 | 0.00 | 0.00 | 42 | 1013.0 |
| 20260503183100 | 62 | 268 | 0.0 | 7.0 | 0.00 | 0.00 | 0.00 | 41 | 1013.1 |
| 20260503181534 | 62 | 163 | 0.0 | 7.0 | 0.00 | 0.00 | 0.00 | 41 | 1013.4 |
| 20260503180020 | 61 | 262 | 0.0 | 14.0 | 0.00 | 0.00 | 0.00 | 45 | 1013.6 |
| 20260503174558 | 61 | 245 | 1.0 | 10.0 | 0.00 | 0.00 | 0.00 | 43 | 1013.7 |
| 20260503173040 | 61 | 78 | 0.0 | 11.0 | 0.00 | 0.00 | 0.00 | 45 | 1014.1 |
| 20260503171517 | 59 | 244 | 0.0 | 10.0 | 0.00 | 0.00 | 0.00 | 45 | 1014.4 |
| 20260503170105 | 60 | 262 | 0.0 | 6.0 | 0.00 | 0.00 | 0.00 | 42 | 1014.6 |
| 20260503081519 | 34 | 112 | 0.0 | 0.0 | 0.00 | 0.00 | 0.00 | 76 | 1016.6 |
| 20260503071605 | 34 | 112 | 0.0 | 0.0 | 0.00 | 0.00 | 0.00 | 77 | 1016.8 |
| 20260503054542 | 35 | 112 | 0.0 | 0.0 | 0.00 | 0.00 | 0.00 | 76 | 1017.6 |
| 20260503053013 | 35 | 112 | 0.0 | 0.0 | 0.00 | 0.00 | 0.00 | 76 | 1017.6 |
| 20260503051546 | 35 | 112 | 0.0 | 0.0 | 0.00 | 0.00 | 0.00 | 76 | 1017.7 |
| 20260503050026 | 35 | 112 | 0.0 | 0.0 | 0.00 | 0.00 | 0.00 | 76 | 1017.9 |
| 20260503044510 | 34 | 112 | 0.0 | 0.0 | 0.00 | 0.00 | 0.00 | 74 | 1017.9 |
| 20260503043046 | 35 | 112 | 0.0 | 0.0 | 0.00 | 0.00 | 0.00 | 72 | 1017.9 |
| 20260503041520 | 35 | 112 | 0.0 | 0.0 | 0.00 | 0.00 | 0.00 | 73 | 1017.9 |
| 20260503040054 | 35 | 112 | 0.0 | 0.0 | 0.00 | 0.00 | 0.00 | 74 | 1017.9 |
| 20260503034529 | 35 | 112 | 0.0 | 0.0 | 0.00 | 0.00 | 0.00 | 73 | 1018.0 |
| 20260503033006 | 35 | 112 | 0.0 | 0.0 | 0.00 | 0.00 | 0.00 | 71 | 1018.0 |
| 20260503031541 | 35 | 112 | 0.0 | 0.0 | 0.00 | 0.00 | 0.00 | 71 | 1018.1 |
| 20260503030020 | 36 | 112 | 0.0 | 0.0 | 0.00 | 0.00 | 0.00 | 68 | 1018.1 |
| 20260503024600 | 36 | 112 | 0.0 | 0.0 | 0.00 | 0.00 | 0.00 | 68 | 1018.2 |
| 20260503023034 | 37 | 112 | 0.0 | 0.0 | 0.00 | 0.00 | 0.00 | 66 | 1018.2 |
| 20260503021516 | 37 | 112 | 0.0 | 0.0 | 0.00 | 0.00 | 0.00 | 64 | 1018.2 |
| 20260503020053 | 38 | 112 | 0.0 | 0.0 | 0.00 | 0.00 | 0.00 | 61 | 1018.1 |
| 20260503014529 | 39 | 112 | 0.0 | 0.0 | 0.00 | 0.00 | 0.00 | 59 | 1017.9 |
| 20260503013005 | 40 | 112 | 0.0 | 0.0 | 0.00 | 0.00 | 0.00 | 58 | 1017.9 |
| 20260503011550 | 41 | 112 | 0.0 | 0.0 | 0.00 | 0.00 | 0.00 | 55 | 1017.8 |
| 20260503010029 | 42 | 110 | 0.0 | 0.0 | 0.00 | 0.00 | 0.00 | 50 | 1017.7 |